Time;durP1;ratioP1;P1;durP2;ratioP2;P2;SDS_P1;SDS_P2;PMS_P1;PMS_P2;Temp;Humidity;BMP_temperature;BMP_pressure;BME280_temperature;BME280_humidity;BME280_pressure;Samples;Min_cycle;Max_cycle;Signal;HPM_P1;HPM_P2
2022/07/06 00:01:28;;;;;;;;;;;;;;;20.20;60.27;99625.31;4457021;32;20004;-92
2022/07/06 00:03:53;;;;;;;;;;;;;;;20.27;60.28;99623.03;4454825;32;20295;-93
2022/07/06 00:06:20;;;;;;;;;;;;;;;20.02;60.27;99631.94;4471028;32;19988;-93
2022/07/06 00:08:45;;;;;;;;;;;;;;;19.94;60.27;99624.56;4459972;32;19972;-93
2022/07/06 00:11:10;;;;;;;;;;;;;;;19.89;60.26;99627.56;4443712;32;20022;-93
2022/07/06 00:13:36;;;;;;;;;;;;;;;19.87;60.26;99632.09;4457034;32;19996;-93
2022/07/06 00:16:01;;;;;;;;;;;;;;;19.93;60.25;99626.38;4443898;32;19981;-93
2022/07/06 00:18:26;;;;;;;;;;;;;;;19.77;60.25;99624.94;4443991;32;19987;-93
2022/07/06 00:20:51;;;;;;;;;;;;;;;19.85;60.26;99623.41;4444117;32;20011;-92
2022/07/06 00:23:17;;;;;;;;;;;;;;;19.96;60.27;99621.81;4443702;32;20029;-93
2022/07/06 00:25:42;;;;;;;;;;;;;;;19.92;60.26;99624.69;4443767;32;19973;-93
2022/07/06 00:28:07;;;;;;;;;;;;;;;19.92;60.26;99621.19;4460065;32;19948;-93
2022/07/06 00:30:32;;;;;;;;;;;;;;;19.85;60.26;99615.50;4446771;32;20261;-93
2022/07/06 00:32:58;;;;;;;;;;;;;;;19.91;60.26;99615.06;4447421;32;20030;-93
2022/07/06 00:35:24;;;;;;;;;;;;;;;19.90;60.26;99626.59;4447097;32;20023;-92
2022/07/06 00:37:49;;;;;;;;;;;;;;;19.86;60.26;99606.63;4446452;32;19969;-93
2022/07/06 00:40:14;;;;;;;;;;;;;;;19.89;60.26;99614.34;4445490;32;19992;-91
2022/07/06 00:42:43;;;;;;;;;;;;;;;19.88;60.26;99622.38;4456118;32;21082;-92
2022/07/06 00:45:08;;;;;;;;;;;;;;;19.89;60.26;99614.34;4443977;32;19989;-92
2022/07/06 00:47:34;;;;;;;;;;;;;;;19.91;60.26;99617.72;4443778;32;19984;-91
2022/07/06 00:50:14;;;;;;;;;;;;;;;19.64;60.25;99611.78;4458254;32;20004;-92
2022/07/06 00:52:50;;;;;;;;;;;;;;;19.77;60.25;99606.44;4432085;32;20039;-92
2022/07/06 00:55:16;;;;;;;;;;;;;;;19.76;60.25;99599.47;4432025;32;19982;-94
2022/07/06 00:57:41;;;;;;;;;;;;;;;19.71;60.25;99599.81;4432843;32;19969;-93
2022/07/06 01:00:07;;;;;;;;;;;;;;;19.80;60.25;99593.88;4438381;32;20020;-93
2022/07/06 01:02:32;;;;;;;;;;;;;;;19.90;60.26;99589.63;4456292;32;19991;-93
2022/07/06 01:04:57;;;;;;;;;;;;;;;19.81;60.25;99592.91;4445220;32;19981;-93
2022/07/06 01:07:23;;;;;;;;;;;;;;;19.82;60.25;99589.31;4454261;32;20061;-94
2022/07/06 01:09:48;;;;;;;;;;;;;;;19.86;60.26;99589.94;4441271;32;20012;-93
2022/07/06 01:12:13;;;;;;;;;;;;;;;20.06;60.26;99591.13;4454332;32;19993;-93
2022/07/06 01:14:39;;;;;;;;;;;;;;;20.01;60.26;99595.91;4441441;32;20313;-93
2022/07/06 01:17:04;;;;;;;;;;;;;;;20.07;60.26;99596.28;4441122;32;20027;-92
2022/07/06 01:19:29;;;;;;;;;;;;;;;19.97;60.26;99600.56;4440531;32;20071;-93
2022/07/06 01:21:54;;;;;;;;;;;;;;;19.99;60.26;99606.59;4428569;32;19989;-94
2022/07/06 01:24:20;;;;;;;;;;;;;;;20.15;60.27;99601.88;4430905;32;19993;-93
2022/07/06 01:26:47;;;;;;;;;;;;;;;20.05;60.27;99608.78;4429221;32;19995;-94
2022/07/06 01:29:12;;;;;;;;;;;;;;;20.13;60.27;99608.22;4429860;32;20539;-94
2022/07/06 01:31:45;;;;;;;;;;;;;;;19.92;60.26;99606.19;4430151;32;20027;-94
2022/07/06 01:34:10;;;;;;;;;;;;;;;19.81;60.25;99611.41;4430465;32;20037;-94
2022/07/06 01:36:36;;;;;;;;;;;;;;;20.06;60.26;99617.53;4437489;32;20007;-95
2022/07/06 01:39:01;;;;;;;;;;;;;;;19.98;60.27;99617.25;4451789;32;20021;-94
2022/07/06 01:41:26;;;;;;;;;;;;;;;19.80;60.26;99604.44;4431913;32;20281;-95
2022/07/06 01:43:51;;;;;;;;;;;;;;;19.73;60.26;99613.75;4433529;32;20000;-95
2022/07/06 01:46:17;;;;;;;;;;;;;;;19.72;60.25;99605.94;4431435;32;19989;-93
2022/07/06 01:48:42;;;;;;;;;;;;;;;19.78;60.26;99606.34;4431293;32;19996;-95
2022/07/06 01:51:08;;;;;;;;;;;;;;;19.71;60.26;99613.03;4438072;32;20015;-94
2022/07/06 01:53:33;;;;;;;;;;;;;;;19.75;60.25;99614.50;4446886;32;20035;-94
2022/07/06 01:55:59;;;;;;;;;;;;;;;19.70;60.25;99613.97;4446715;32;20015;-93
2022/07/06 01:58:24;;;;;;;;;;;;;;;19.58;60.24;99612.19;4446770;32;19993;-96
2022/07/06 02:00:52;;;;;;;;;;;;;;;19.36;60.23;99619.91;4447302;32;19989;-96
2022/07/06 02:03:22;;;;;;;;;;;;;;;19.31;60.23;99623.72;4459819;32;19981;-96
2022/07/06 02:05:56;;;;;;;;;;;;;;;19.45;60.24;99630.69;4460730;32;19965;-96
2022/07/06 02:08:22;;;;;;;;;;;;;;;19.38;60.23;99631.22;4459808;32;20042;-96
2022/07/06 02:10:47;;;;;;;;;;;;;;;19.24;60.22;99634.81;4446463;32;19988;-95
2022/07/06 02:13:12;;;;;;;;;;;;;;;19.23;60.22;99631.34;4459736;32;19976;-95
2022/07/06 02:15:37;;;;;;;;;;;;;;;19.33;60.23;99642.94;4447492;32;19993;-95
2022/07/06 02:18:03;;;;;;;;;;;;;;;19.19;60.22;99643.06;4460665;32;21404;-95
2022/07/06 02:20:28;;;;;;;;;;;;;;;19.26;60.23;99633.78;4448583;32;19985;-95
2022/07/06 02:22:53;;;;;;;;;;;;;;;19.33;60.23;99636.81;4445989;32;20011;-93
2022/07/06 02:25:21;;;;;;;;;;;;;;;19.46;60.23;99642.94;4445672;32;19965;-93
2022/07/06 02:27:46;;;;;;;;;;;;;;;19.51;60.24;99654.00;4458693;32;20618;-93
2022/07/06 02:30:11;;;;;;;;;;;;;;;19.46;60.23;99650.00;4446238;32;20004;-94
2022/07/06 02:32:37;;;;;;;;;;;;;;;19.26;60.23;99636.41;4446195;32;19981;-95
2022/07/06 02:35:02;;;;;;;;;;;;;;;19.29;60.23;99630.06;4446893;32;20253;-95
2022/07/06 02:37:27;;;;;;;;;;;;;;;19.01;60.22;99628.50;4446218;32;19988;-94
2022/07/06 02:39:52;;;;;;;;;;;;;;;19.07;60.21;99629.88;4447185;32;20038;-95
2022/07/06 02:42:18;;;;;;;;;;;;;;;19.13;60.22;99632.06;4448440;32;19972;-95
2022/07/06 02:44:43;;;;;;;;;;;;;;;19.16;60.23;99635.34;4446424;32;20058;-94
2022/07/06 02:47:09;;;;;;;;;;;;;;;19.04;60.21;99630.06;4445872;32;20007;-94
2022/07/06 02:49:34;;;;;;;;;;;;;;;18.86;60.21;99634.81;4458297;32;20029;-93
2022/07/06 02:52:02;;;;;;;;;;;;;;;19.06;60.22;99644.00;4459099;32;20003;-95
2022/07/06 02:54:27;;;;;;;;;;;;;;;19.08;60.21;99644.75;4458990;32;19945;-94
2022/07/06 02:56:53;;;;;;;;;;;;;;;19.17;60.22;99647.62;4445591;32;20275;-93
2022/07/06 02:59:19;;;;;;;;;;;;;;;19.31;60.22;99657.19;4446304;32;19989;-93
2022/07/06 03:01:44;;;;;;;;;;;;;;;19.18;60.22;99659.00;4460916;32;20249;-93
2022/07/06 03:04:09;;;;;;;;;;;;;;;19.28;60.23;99660.91;4445695;32;20246;-93
2022/07/06 03:06:35;;;;;;;;;;;;;;;19.32;60.23;99665.00;4445002;32;20031;-94
2022/07/06 03:09:00;;;;;;;;;;;;;;;19.42;60.24;99670.50;4445752;32;20028;-91
2022/07/06 03:11:25;;;;;;;;;;;;;;;19.28;60.23;99684.66;4446244;32;20281;-90
2022/07/06 03:13:51;;;;;;;;;;;;;;;19.13;60.22;99677.78;4447637;32;20030;-94
2022/07/06 03:16:19;;;;;;;;;;;;;;;19.27;60.23;99674.19;4450110;32;20033;-95
2022/07/06 03:18:45;;;;;;;;;;;;;;;19.25;60.23;99674.31;4457703;32;19969;-93
2022/07/06 03:21:10;;;;;;;;;;;;;;;19.00;60.21;99677.78;4459557;32;19976;-91
2022/07/06 03:23:35;;;;;;;;;;;;;;;19.11;60.22;99684.09;4459274;32;19968;-91
2022/07/06 03:26:02;;;;;;;;;;;;;;;19.17;60.22;99689.84;4445442;32;21751;-93
2022/07/06 03:28:29;;;;;;;;;;;;;;;19.05;60.21;99685.38;4459580;32;19997;-94
2022/07/06 03:30:55;;;;;;;;;;;;;;;19.03;60.22;99695.19;4459401;32;20332;-92
2022/07/06 03:33:20;;;;;;;;;;;;;;;19.06;60.22;99684.44;4446535;32;20012;-92
2022/07/06 03:35:45;;;;;;;;;;;;;;;19.09;60.22;99692.12;4447517;32;19993;-93
2022/07/06 03:38:12;;;;;;;;;;;;;;;19.13;60.22;99683.03;4448113;32;20004;-94
2022/07/06 03:40:37;;;;;;;;;;;;;;;18.91;60.20;99691.56;4445133;32;19999;-92
2022/07/06 03:43:03;;;;;;;;;;;;;;;18.97;60.21;99688.53;4445132;32;20017;-91
2022/07/06 03:45:28;;;;;;;;;;;;;;;18.91;60.20;99685.44;4444601;32;20283;-91
2022/07/06 03:47:53;;;;;;;;;;;;;;;18.96;60.21;99683.38;4444679;32;19988;-91
2022/07/06 03:50:44;;;;;;;;;;;;;;;18.92;60.21;99687.13;4444266;32;19981;-94
2022/07/06 03:53:09;;;;;;;;;;;;;;;19.00;60.21;99696.25;4458882;32;19969;-92
2022/07/06 03:55:35;;;;;;;;;;;;;;;18.98;60.21;99679.69;4445950;32;20008;-89
2022/07/06 03:58:00;;;;;;;;;;;;;;;19.06;60.21;99686.22;4446634;32;20005;-90
2022/07/06 04:00:25;;;;;;;;;;;;;;;19.09;60.22;99678.94;4457465;32;20012;-92
2022/07/06 04:02:50;;;;;;;;;;;;;;;19.33;60.23;99679.03;4445529;32;19973;-93
2022/07/06 04:05:20;;;;;;;;;;;;;;;19.54;60.25;99672.31;4458139;32;20003;-93
2022/07/06 04:07:46;;;;;;;;;;;;;;;19.48;60.24;99672.72;4445492;32;20008;-94
2022/07/06 04:10:13;;;;;;;;;;;;;;;19.62;60.25;99672.59;4444183;32;20264;-94
2022/07/06 04:12:39;;;;;;;;;;;;;;;19.76;60.25;99668.16;4458486;32;19985;-93
2022/07/06 04:15:07;;;;;;;;;;;;;;;19.87;60.26;99662.94;4457969;32;20008;-96
2022/07/06 04:20:16;;;;;;;;;;;;;;;19.82;60.25;99673.84;4459844;32;20714;-93
2022/07/06 04:22:59;;;;;;;;;;;;;;;19.83;60.25;99675.53;4444140;32;19981;-93
2022/07/06 04:25:25;;;;;;;;;;;;;;;20.01;60.26;99672.53;4456993;32;19988;-95
2022/07/06 04:27:50;;;;;;;;;;;;;;;20.09;60.27;99664.88;4447661;32;20028;-94
2022/07/06 04:30:15;;;;;;;;;;;;;;;20.38;60.28;99668.91;4458218;32;19976;-94
2022/07/06 04:32:40;;;;;;;;;;;;;;;20.54;60.29;99666.81;4444958;32;19989;-92
2022/07/06 04:35:06;;;;;;;;;;;;;;;20.50;60.29;99665.34;4457858;32;20001;-93
2022/07/06 04:37:31;;;;;;;;;;;;;;;20.44;60.29;99662.34;4457472;32;20031;-94
2022/07/06 04:39:56;;;;;;;;;;;;;;;20.56;60.30;99655.28;4459094;32;19997;-90
2022/07/06 04:42:22;;;;;;;;;;;;;;;20.50;60.29;99664.50;4456933;32;20280;-92
2022/07/06 04:44:47;;;;;;;;;;;;;;;20.60;60.29;99659.41;4457845;32;19985;-94
2022/07/06 04:47:12;;;;;;;;;;;;;;;20.27;60.28;99675.91;4457416;32;19996;-92
2022/07/06 04:49:38;;;;;;;;;;;;;;;20.18;60.28;99664.22;4444664;32;19998;-92
2022/07/06 04:52:03;;;;;;;;;;;;;;;20.26;60.28;99675.06;4445246;32;19984;-91
2022/07/06 04:54:28;;;;;;;;;;;;;;;20.27;60.28;99671.47;4459787;32;19993;-93
2022/07/06 04:56:55;;;;;;;;;;;;;;;20.37;60.28;99669.00;4452343;32;20000;-94
2022/07/06 04:59:20;;;;;;;;;;;;;;;20.54;60.29;99672.09;4468222;32;19949;-93
2022/07/06 05:01:45;;;;;;;;;;;;;;;20.63;60.29;99664.47;4444660;32;20008;-95
2022/07/06 05:04:11;;;;;;;;;;;;;;;20.57;60.29;99673.66;4444739;32;19984;-92
2022/07/06 05:06:36;;;;;;;;;;;;;;;20.47;60.29;99676.16;4456970;32;20007;-90
2022/07/06 05:09:01;;;;;;;;;;;;;;;20.48;60.30;99671.72;4456226;32;20010;-89
2022/07/06 05:11:27;;;;;;;;;;;;;;;20.69;60.29;99683.34;4442991;32;26990;-89
2022/07/06 05:13:52;;;;;;;;;;;;;;;20.81;60.31;99687.72;4458534;32;20012;-89
2022/07/06 05:16:17;;;;;;;;;;;;;;;20.94;60.32;99692.94;4445312;32;19984;-89
2022/07/06 05:18:42;;;;;;;;;;;;;;;20.92;60.31;99686.91;4457809;32;19972;-90
2022/07/06 05:21:08;;;;;;;;;;;;;;;21.07;60.32;99677.81;4444700;32;19980;-89
2022/07/06 05:23:33;;;;;;;;;;;;;;;21.07;60.32;99676.97;4444665;32;19998;-89
2022/07/06 05:25:59;;;;;;;;;;;;;;;21.12;60.32;99682.75;4471683;32;19973;-90
2022/07/06 05:28:24;;;;;;;;;;;;;;;21.23;60.32;99685.41;4471876;32;20032;-91
2022/07/06 05:30:49;;;;;;;;;;;;;;;21.33;60.34;99691.72;4457633;32;19980;-90
2022/07/06 05:33:14;;;;;;;;;;;;;;;21.29;60.33;99692.06;4471846;32;20022;-89
2022/07/06 05:35:40;;;;;;;;;;;;;;;21.14;60.32;99697.56;4458001;32;19996;-91
2022/07/06 05:38:05;;;;;;;;;;;;;;;21.30;60.33;99699.91;4444625;32;19976;-90
2022/07/06 05:40:30;;;;;;;;;;;;;;;21.39;60.33;99712.44;4471116;32;25023;-89
2022/07/06 05:42:55;;;;;;;;;;;;;;;21.53;60.34;99716.66;4457150;32;19981;-90
2022/07/06 05:45:22;;;;;;;;;;;;;;;21.36;60.33;99719.78;4457587;32;19977;-90
2022/07/06 05:50:31;;;;;;;;;;;;;;;21.34;60.34;99717.25;4471449;32;19996;-90
2022/07/06 05:52:57;;;;;;;;;;;;;;;21.44;60.34;99720.84;4444699;32;20317;-92
2022/07/06 05:55:23;;;;;;;;;;;;;;;21.39;60.34;99732.78;4458979;32;19988;-93
2022/07/06 05:57:55;;;;;;;;;;;;;;;21.44;60.34;99723.50;4458298;32;20011;-94
2022/07/06 06:00:21;;;;;;;;;;;;;;;21.76;60.35;99733.38;4445957;32;19982;-94
2022/07/06 06:02:46;;;;;;;;;;;;;;;21.95;60.36;99732.78;4445034;32;19989;-94
2022/07/06 06:05:12;;;;;;;;;;;;;;;22.05;60.37;99734.63;4445230;32;20368;-93
2022/07/06 06:07:38;;;;;;;;;;;;;;;22.03;60.38;99727.75;4458519;32;19980;-93
2022/07/06 06:10:40;;;;;;;;;;;;;;;22.03;60.37;99730.38;4446277;32;19969;-95
2022/07/06 06:13:05;;;;;;;;;;;;;;;22.14;60.38;99738.34;4458504;32;19989;-94
2022/07/06 06:15:30;;;;;;;;;;;;;;;22.16;60.38;99744.38;4445697;32;20270;-94
2022/07/06 06:17:56;;;;;;;;;;;;;;;22.13;60.38;99747.25;4445137;32;19985;-94
2022/07/06 06:20:21;;;;;;;;;;;;;;;22.01;60.37;99748.22;4444865;32;19969;-93
2022/07/06 06:22:50;;;;;;;;;;;;;;;22.05;60.37;99737.28;4443921;32;20325;-94
2022/07/06 06:25:16;;;;;;;;;;;;;;;22.17;60.37;99740.75;4458492;32;20000;-93
2022/07/06 06:27:41;;;;;;;;;;;;;;;22.37;60.39;99733.84;4445176;32;20038;-95
2022/07/06 06:30:07;;;;;;;;;;;;;;;22.35;60.39;99727.81;4445747;32;19987;-94
2022/07/06 06:32:32;;;;;;;;;;;;;;;22.22;60.38;99725.31;4458589;32;20040;-93
2022/07/06 06:34:57;;;;;;;;;;;;;;;22.34;60.39;99723.47;4460042;32;20023;-93
2022/07/06 06:37:22;;;;;;;;;;;;;;;22.64;60.39;99728.94;4454815;32;20038;-94
2022/07/06 06:39:47;;;;;;;;;;;;;;;22.86;60.41;99729.84;4465514;32;19984;-94
2022/07/06 06:42:13;;;;;;;;;;;;;;;22.92;60.42;99727.50;4446217;32;20003;-93
2022/07/06 06:44:38;;;;;;;;;;;;;;;23.07;60.42;99727.22;4458216;32;20275;-94
2022/07/06 06:47:03;;;;;;;;;;;;;;;23.23;60.43;99738.22;4458104;32;20366;-93
2022/07/06 06:49:29;;;;;;;;;;;;;;;23.34;60.44;99737.31;4457635;32;19984;-96
2022/07/06 06:51:54;;;;;;;;;;;;;;;23.39;60.44;99743.91;4457877;32;20024;-92
2022/07/06 06:54:19;;;;;;;;;;;;;;;23.27;60.44;99735.19;4458001;32;19980;-94
2022/07/06 06:56:44;;;;;;;;;;;;;;;23.22;60.44;99740.03;4457964;32;19977;-94
2022/07/06 06:59:09;;;;;;;;;;;;;;;23.21;60.43;99741.03;4457836;32;20312;-94
2022/07/06 07:01:35;;;;;;;;;;;;;;;23.22;60.43;99734.72;4444476;32;20043;-93
2022/07/06 07:04:00;;;;;;;;;;;;;;;23.54;60.45;99729.31;4444566;32;19997;-95
2022/07/06 07:06:25;;;;;;;;;;;;;;;23.83;60.47;99741.94;4457159;32;19977;-93
2022/07/06 07:08:55;;;;;;;;;;;;;;;23.85;60.46;99727.53;4444765;32;19968;-95
2022/07/06 07:11:20;;;;;;;;;;;;;;;24.25;60.49;99736.47;4457831;32;20011;-94
2022/07/06 07:13:48;;;;;;;;;;;;;;;24.43;60.49;99726.87;4458085;32;20317;-95
2022/07/06 07:16:13;;;;;;;;;;;;;;;24.76;60.52;99723.81;4457370;32;19999;-94
2022/07/06 07:18:39;;;;;;;;;;;;;;;25.11;60.53;99722.44;4444458;32;19997;-94
2022/07/06 07:21:04;;;;;;;;;;;;;;;25.24;60.55;99727.44;4444200;32;20082;-94
2022/07/06 07:23:30;;;;;;;;;;;;;;;25.27;60.54;99722.66;4444501;32;20033;-95
2022/07/06 07:25:55;;;;;;;;;;;;;;;25.48;60.55;99716.31;4444373;32;19995;-93
2022/07/06 07:28:20;;;;;;;;;;;;;;;25.63;60.56;99710.38;4444261;32;19972;-95
2022/07/06 07:30:48;;;;;;;;;;;;;;;25.72;60.56;99721.16;4457286;32;19988;-91
2022/07/06 07:33:13;;;;;;;;;;;;;;;25.84;60.57;99722.69;4458189;32;19999;-92
2022/07/06 07:35:38;;;;;;;;;;;;;;;25.92;60.57;99720.94;4457479;32;20241;-92
2022/07/06 07:38:04;;;;;;;;;;;;;;;25.90;60.57;99724.75;4458444;32;20017;-91
2022/07/06 07:41:21;;;;;;;;;;;;;;;;;;;;;
2022/07/06 07:43:46;;;;;;;;;;;;;;;25.99;60.58;99735.34;4470394;32;36128;-92
2022/07/06 07:46:11;;;;;;;;;;;;;;;25.96;60.57;99735.66;4444150;32;20006;-92
2022/07/06 07:48:43;;;;;;;;;;;;;;;26.22;60.59;99727.78;4444208;32;19993;-93
2022/07/06 07:51:08;;;;;;;;;;;;;;;26.19;60.59;99730.75;4457341;32;20019;-92
2022/07/06 07:53:34;;;;;;;;;;;;;;;26.26;60.60;99723.00;4458842;32;20434;-92
2022/07/06 07:56:00;;;;;;;;;;;;;;;26.30;60.59;99732.41;4458598;32;20698;-93
2022/07/06 07:58:26;;;;;;;;;;;;;;;26.37;60.60;99730.84;4444289;32;20007;-93
2022/07/06 08:00:52;;;;;;;;;;;;;;;26.46;60.60;99723.75;4444480;32;19997;-92
2022/07/06 08:03:17;;;;;;;;;;;;;;;26.61;60.61;99725.75;4444164;32;20001;-92
2022/07/06 08:05:42;;;;;;;;;;;;;;;26.73;60.62;99718.34;4444218;32;19989;-92
2022/07/06 08:08:07;;;;;;;;;;;;;;;26.85;60.62;99725.13;4444597;32;19991;-94
2022/07/06 08:10:33;;;;;;;;;;;;;;;26.76;60.62;99719.87;4445245;32;20347;-93
2022/07/06 08:12:58;;;;;;;;;;;;;;;26.51;60.61;99724.16;4446659;32;20044;-93
2022/07/06 08:15:23;;;;;;;;;;;;;;;26.64;60.61;99734.44;4460102;32;20024;-92
2022/07/06 08:17:48;;;;;;;;;;;;;;;26.84;60.62;99728.78;4463564;32;20021;-93
2022/07/06 08:20:17;;;;;;;;;;;;;;;26.99;60.63;99739.81;4451023;32;20032;-93
2022/07/06 08:22:42;;;;;;;;;;;;;;;27.05;60.64;99741.87;4459326;32;20018;-95
2022/07/06 08:25:08;;;;;;;;;;;;;;;27.07;60.64;99733.69;4457802;32;20022;-94
2022/07/06 08:27:33;;;;;;;;;;;;;;;26.96;60.64;99729.38;4457298;32;19992;-93
2022/07/06 08:30:00;;;;;;;;;;;;;;;27.26;60.65;99738.84;4443885;32;19997;-94
2022/07/06 08:32:25;;;;;;;;;;;;;;;27.42;60.65;99741.63;4457079;32;20008;-91
2022/07/06 08:34:50;;;;;;;;;;;;;;;27.57;60.66;99739.22;4443572;32;19989;-93
2022/07/06 08:37:15;;;;;;;;;;;;;;;27.64;60.66;99734.94;4456108;32;19976;-92
2022/07/06 08:39:41;;;;;;;;;;;;;;;27.52;60.67;99742.37;4456264;32;20325;-92
2022/07/06 08:42:07;;;;;;;;;;;;;;;27.76;60.67;99744.38;4456415;32;19981;-92
2022/07/06 08:44:32;;;;;;;;;;;;;;;28.12;60.68;99750.37;4456303;32;19976;-92
2022/07/06 08:46:57;;;;;;;;;;;;;;;28.38;60.70;99755.69;4457329;32;20369;-91
2022/07/06 08:49:22;;;;;;;;;;;;;;;28.51;60.70;99759.75;4445488;32;20310;-90
2022/07/06 08:51:48;;;;;;;;;;;;;;;28.40;60.71;99758.22;4445183;32;19973;-89
2022/07/06 08:54:13;;;;;;;;;;;;;;;28.77;60.72;99749.75;4471869;32;20325;-88
2022/07/06 08:56:39;;;;;;;;;;;;;;;28.73;60.72;99741.19;4472406;32;20276;-88
2022/07/06 08:59:04;;;;;;;;;;;;;;;28.54;60.71;99746.03;4444883;32;20019;-89
2022/07/06 09:01:29;;;;;;;;;;;;;;;28.83;60.72;99746.38;4472293;32;20003;-89
2022/07/06 09:03:55;;;;;;;;;;;;;;;28.76;60.72;99745.38;4458108;32;19977;-89
2022/07/06 09:06:22;;;;;;;;;;;;;;;28.74;60.72;99742.03;4458370;32;19969;-88
2022/07/06 09:08:48;;;;;;;;;;;;;;;28.49;60.71;99751.88;4472889;32;20438;-88
2022/07/06 09:11:13;;;;;;;;;;;;;;;28.58;60.72;99744.69;4458641;32;19989;-88
2022/07/06 09:13:38;;;;;;;;;;;;;;;28.75;60.72;99751.75;4472570;32;19977;-89
2022/07/06 09:16:10;;;;;;;;;;;;;;;28.64;60.72;99755.59;4472285;32;21173;-87
2022/07/06 09:18:37;;;;;;;;;;;;;;;28.28;60.70;99741.59;4472289;32;19999;-88
2022/07/06 09:21:02;;;;;;;;;;;;;;;28.28;60.70;99738.94;4472381;32;19997;-87
2022/07/06 09:23:28;;;;;;;;;;;;;;;28.43;60.71;99739.16;4472255;32;20017;-88
2022/07/06 09:25:53;;;;;;;;;;;;;;;28.64;60.72;99744.03;4458207;32;19995;-89
2022/07/06 09:28:18;;;;;;;;;;;;;;;28.89;60.73;99745.78;4458629;32;21901;-88
2022/07/06 09:30:43;;;;;;;;;;;;;;;29.04;60.74;99751.28;4472879;32;24421;-87
2022/07/06 09:33:09;;;;;;;;;;;;;;;28.91;60.73;99740.25;4472686;32;20241;-89
2022/07/06 09:35:38;;;;;;;;;;;;;;;29.23;60.75;99732.19;4457987;32;20294;-88
2022/07/06 09:38:03;;;;;;;;;;;;;;;29.35;60.76;99730.00;4445304;32;20034;-88
2022/07/06 09:40:32;;;;;;;;;;;;;;;29.38;60.76;99726.97;4457796;32;20309;-87
2022/07/06 09:43:17;;;;;;;;;;;;;;;29.43;60.76;99731.81;4471999;32;20352;-88
2022/07/06 09:45:43;;;;;;;;;;;;;;;29.54;60.76;99718.91;4472234;32;19977;-88
2022/07/06 09:48:09;;;;;;;;;;;;;;;29.67;60.77;99730.97;4472390;32;20337;-88
2022/07/06 09:50:47;;;;;;;;;;;;;;;29.58;60.77;99728.31;4460663;32;19999;-87
2022/07/06 09:53:13;;;;;;;;;;;;;;;29.58;60.78;99749.78;4473610;32;19957;-88
2022/07/06 09:55:38;;;;;;;;;;;;;;;29.66;60.77;99727.44;4473331;32;20218;-86
2022/07/06 09:58:03;;;;;;;;;;;;;;;29.92;60.79;99735.25;4473651;32;20249;-86
2022/07/06 10:00:29;;;;;;;;;;;;;;;29.88;60.78;99728.56;4484282;32;20014;-87
2022/07/06 10:02:54;;;;;;;;;;;;;;;29.56;60.76;99729.47;4472079;32;29929;-85
2022/07/06 10:05:19;;;;;;;;;;;;;;;29.36;60.76;99733.53;4457559;32;19983;-86
2022/07/06 10:07:48;;;;;;;;;;;;;;;29.60;60.77;99736.19;4471333;32;20005;-85
2022/07/06 10:10:14;;;;;;;;;;;;;;;29.70;60.78;99746.72;4457486;32;20003;-86
2022/07/06 10:12:39;;;;;;;;;;;;;;;29.86;60.78;99734.09;4471543;32;19973;-86
2022/07/06 10:15:05;;;;;;;;;;;;;;;29.78;60.78;99741.31;4457445;32;20258;-85
2022/07/06 10:17:30;;;;;;;;;;;;;;;30.02;60.79;99740.38;4457425;32;19992;-86
2022/07/06 10:19:55;;;;;;;;;;;;;;;29.97;60.80;99740.06;4443738;32;29781;-85
2022/07/06 10:22:20;;;;;;;;;;;;;;;29.92;60.79;99730.72;4444269;32;20284;-85
2022/07/06 10:24:46;;;;;;;;;;;;;;;30.05;60.79;99742.75;4457502;32;19976;-86
2022/07/06 10:27:11;;;;;;;;;;;;;;;30.26;60.81;99732.25;4471018;32;23400;-85
2022/07/06 10:29:36;;;;;;;;;;;;;;;30.45;60.82;99739.03;4457355;32;19991;-86
2022/07/06 10:32:01;;;;;;;;;;;;;;;30.33;60.81;99732.41;4470740;32;29229;-86
2022/07/06 10:34:27;;;;;;;;;;;;;;;30.31;60.81;99751.38;4457350;32;19957;-85
2022/07/06 10:36:53;;;;;;;;;;;;;;;30.31;60.82;99731.75;4456617;32;27673;-85
2022/07/06 10:42:34;;;;;;;;;;;;;;;30.23;60.80;99746.88;4459436;32;19992;-85
2022/07/06 10:44:59;;;;;;;;;;;;;;;30.33;60.81;99741.28;4471830;32;19961;-84
2022/07/06 10:47:28;;;;;;;;;;;;;;;30.24;60.81;99735.09;4471314;32;20047;-85
2022/07/06 10:49:53;;;;;;;;;;;;;;;30.19;60.80;99742.87;4457459;32;19984;-85
2022/07/06 10:52:18;;;;;;;;;;;;;;;29.94;60.79;99752.84;4456148;32;30428;-85
2022/07/06 10:54:43;;;;;;;;;;;;;;;30.09;60.80;99736.88;4471401;32;19973;-85
2022/07/06 10:57:09;;;;;;;;;;;;;;;30.26;60.81;99743.00;4456263;32;28709;-85
2022/07/06 10:59:35;;;;;;;;;;;;;;;30.24;60.81;99751.22;4471440;32;19999;-85
2022/07/06 11:02:16;;;;;;;;;;;;;;;30.27;60.81;99735.75;4456428;32;29190;-85
2022/07/06 11:04:43;;;;;;;;;;;;;;;30.39;60.82;99754.00;4457238;32;19987;-85
2022/07/06 11:07:10;;;;;;;;;;;;;;;30.43;60.81;99755.31;4471335;32;19992;-85
2022/07/06 11:09:35;;;;;;;;;;;;;;;30.36;60.82;99745.47;4456348;32;20462;-85
2022/07/06 11:12:07;;;;;;;;;;;;;;;30.32;60.82;99741.47;4470945;32;23931;-85
2022/07/06 11:14:36;;;;;;;;;;;;;;;30.51;60.83;99741.00;4456919;32;19981;-85
2022/07/06 11:17:02;;;;;;;;;;;;;;;30.77;60.84;99728.13;4456898;32;19989;-85
2022/07/06 11:19:27;;;;;;;;;;;;;;;31.00;60.85;99752.28;4457335;32;20006;-85
2022/07/06 11:21:56;;;;;;;;;;;;;;;30.88;60.84;99742.97;4471031;32;20245;-85
2022/07/06 11:24:22;;;;;;;;;;;;;;;30.91;60.84;99757.91;4471417;32;19969;-85
2022/07/06 11:26:48;;;;;;;;;;;;;;;30.75;60.85;99731.97;4471423;32;19984;-85
2022/07/06 11:29:13;;;;;;;;;;;;;;;30.98;60.85;99738.16;4457143;32;20030;-85
2022/07/06 11:31:39;;;;;;;;;;;;;;;31.13;60.86;99754.34;4471543;32;19969;-85
2022/07/06 11:34:05;;;;;;;;;;;;;;;31.08;60.86;99748.69;4471723;32;19969;-85
2022/07/06 11:36:30;;;;;;;;;;;;;;;30.95;60.85;99735.00;4457692;32;20026;-85
2022/07/06 11:38:55;;;;;;;;;;;;;;;31.02;60.85;99739.50;4471995;32;20077;-85
2022/07/06 11:41:20;;;;;;;;;;;;;;;30.83;60.85;99748.06;4477774;32;19996;-84
2022/07/06 11:43:46;;;;;;;;;;;;;;;30.78;60.84;99753.97;4478983;32;19977;-85
2022/07/06 11:46:24;;;;;;;;;;;;;;;30.80;60.85;99760.00;4470893;32;19980;-85
2022/07/06 11:48:50;;;;;;;;;;;;;;;30.86;60.85;99758.44;4456610;32;20036;-85
2022/07/06 11:51:16;;;;;;;;;;;;;;;30.77;60.85;99751.47;4470879;32;19973;-85
2022/07/06 11:53:45;;;;;;;;;;;;;;;30.99;60.86;99755.97;4471005;32;19971;-85
2022/07/06 11:56:10;;;;;;;;;;;;;;;31.31;60.88;99757.59;4470893;32;20253;-84
2022/07/06 11:58:35;;;;;;;;;;;;;;;31.29;60.87;99761.47;4455894;32;32455;-85
2022/07/06 12:01:07;;;;;;;;;;;;;;;31.10;60.86;99762.78;4443978;32;19995;-85
2022/07/06 12:03:32;;;;;;;;;;;;;;;30.89;60.85;99773.37;4470925;32;20026;-85
2022/07/06 12:05:58;;;;;;;;;;;;;;;30.92;60.86;99756.87;4470734;32;20306;-85
2022/07/06 12:08:23;;;;;;;;;;;;;;;30.85;60.85;99754.91;4456604;32;19985;-85
2022/07/06 12:10:49;;;;;;;;;;;;;;;30.91;60.86;99755.22;4443422;32;20324;-85
2022/07/06 12:13:14;;;;;;;;;;;;;;;30.75;60.83;99765.03;4456527;32;19969;-85
2022/07/06 12:15:39;;;;;;;;;;;;;;;30.97;60.85;99760.69;4470102;32;25935;-84
2022/07/06 12:18:04;;;;;;;;;;;;;;;31.31;60.88;99764.81;4470193;32;24917;-85
2022/07/06 12:20:29;;;;;;;;;;;;;;;31.24;60.87;99764.72;4469966;32;29729;-85
2022/07/06 12:23:02;;;;;;;;;;;;;;;31.39;60.88;99759.34;4469910;32;31032;-85
2022/07/06 12:25:33;;;;;;;;;;;;;;;31.35;60.87;99769.66;4470525;32;19973;-85
2022/07/06 12:27:59;;;;;;;;;;;;;;;31.01;60.86;99759.34;4470416;32;19989;-85
2022/07/06 12:30:24;;;;;;;;;;;;;;;31.11;60.86;99767.16;4469576;32;33415;-85
2022/07/06 12:33:08;;;;;;;;;;;;;;;31.24;60.87;99755.81;4456138;32;19983;-85
2022/07/06 12:35:33;;;;;;;;;;;;;;;31.43;60.88;99758.81;4470596;32;20309;-85
2022/07/06 12:37:58;;;;;;;;;;;;;;;31.44;60.88;99747.03;4469833;32;32001;-85
2022/07/06 12:40:25;;;;;;;;;;;;;;;31.64;60.89;99751.88;4470661;32;20024;-85
2022/07/06 12:42:50;;;;;;;;;;;;;;;31.55;60.88;99755.69;4430789;32;806007;-85
2022/07/06 12:45:15;;;;;;;;;;;;;;;31.21;60.86;99762.38;4470413;32;20031;-86
2022/07/06 12:47:42;;;;;;;;;;;;;;;30.77;60.85;99752.31;4456306;32;20320;-86
2022/07/06 12:50:08;;;;;;;;;;;;;;;30.61;60.84;99757.78;4470345;32;20044;-85
2022/07/06 12:52:34;;;;;;;;;;;;;;;30.63;60.84;99754.91;4470543;32;20226;-86